aviador You're here:

MMSL Decoded Metar

in
Report Time2018-04-23 22:42:00
UTC Time2018-04-23 23:06:05
Flight Rules vfr VFR
Wind120° at 10 kt
W.Decomp.*RWY 11: 9.8 kt HW 1.7 kt RCW
W.Rank120° ranks 21
Current wind is above 120° avg. (7.7)
Visibility9999 m
Phenomena:N/A
Clouds:Few 120 Hf
Expected CloudBase > 9,200 ft AGL from Temp-Dew spread
CeilingNone
Temp31°C
Dew Point08°C (24% RH)
Heat Index29.3°C
AAT26.9°C
QNH1014 hPa
Raw Report
METAR MMSL 232242Z 12010KT 9SM FEW120 31/08 A2993 RMK 8/030=

Extra information for MMSL:More info

Social comments